Norfolk — WDG2147 — position and weather

sailwx.info

Track history (hours):
 
Tides and Currents Weather Stations Pressure Air Temp Water Temp Dewpoint Dewpoint Depression Visibility Wind Speed Wind Dir Waves Ship Positions

Norfolk

Owner: Virginia Pilot Boat Corporation, Virginia Beach, VA. More information available from US FCC via Universal Licensing System and Coast Guard Vessel Documentation Center.

Last reported at 2017-Feb-25 17:28 UTC. Time now 2017-Feb-25 20:49 UTC.
Position N 36°57' W 075°58'.

Length 18 m; draft 1.5 m.

Type: Pilot. MMSI: 367512630.

Date/timePositionNaut miles runAvg speedWind from/ knotsBaromVisibWave heightAir tempDewpointWater temp
2017-Feb-25 17:28N 36°57' W 075°58'6 3.2
2017-Feb-25 15:31N 36°54' W 076°05'0 0.0
2017-Feb-25 14:17N 36°54' W 076°05'3 3.5
2017-Feb-25 13:33N 36°56' W 076°03'2 0.1
2017-Feb-24 22:27N 36°55' W 076°05'1 0.2
2017-Feb-24 19:06N 36°55' W 076°06'4 5.0
2017-Feb-24 18:16N 36°56' W 076°01'4 1.0
2017-Feb-24 14:09N 36°54' W 076°05'812.5
2017-Feb-24 13:32N 36°56' W 075°56'8 0.5
2017-Feb-23 22:18N 36°54' W 076°05'0 0.2
2017-Feb-23 21:33N 36°55' W 076°06'0 0.2
2017-Feb-23 20:20N 36°54' W 076°05'1 1.0
2017-Feb-23 19:15N 36°55' W 076°05'2 3.1
2017-Feb-23 18:31N 36°57' W 076°03'2 0.2
2017-Feb-23 08:25N 36°55' W 076°05'0 0.1
2017-Feb-23 07:31N 36°55' W 076°05'3 0.7
2017-Feb-23 03:33N 36°57' W 076°02'4 0.5
2017-Feb-22 20:28N 36°54' W 076°05'3 2.7
2017-Feb-22 19:33N 36°56' W 076°03'3 0.8
2017-Feb-22 16:25N 36°54' W 076°05'0 0.0
2017-Feb-22 15:28N 36°54' W 076°05'0 0.0
2017-Feb-22 14:31N 36°54' W 076°05'0 0.0
2017-Feb-22 13:33N 36°54' W 076°05'0 0.0
2017-Feb-22 12:31N 36°54' W 076°05'0 0.0
2017-Feb-21 22:21N 36°54' W 076°05'0 0.0
2017-Feb-21 20:22N 36°54' W 076°05'3 3.1
2017-Feb-21 19:33N 36°56' W 076°03'2 1.0
2017-Feb-21 17:32N 36°57' W 076°05'2 0.1
2017-Feb-20 22:31N 36°55' W 076°05'1 0.6
2017-Feb-20 21:32N 36°55' W 076°05'0 0.4
2017-Feb-20 20:30N 36°54' W 076°05'0 0.2
2017-Feb-20 19:27N 36°54' W 076°06'0 0.0
2017-Feb-20 14:32N 36°54' W 076°05'8 8.4
2017-Feb-20 13:32N 36°56' W 075°55'8 0.9
2017-Feb-20 04:31N 36°54' W 076°05'0 0.0
2017-Feb-19 20:27N 36°54' W 076°05'6 6.1
2017-Feb-19 19:31N 36°56' W 075°59'6 5.7
2017-Feb-19 18:32N 36°54' W 076°05'0 0.0
2017-Feb-19 17:33N 36°54' W 076°05'4 3.6
2017-Feb-19 16:27N 36°56' W 076°01'4 2.0
2017-Feb-19 14:29N 36°54' W 076°05'4 4.2
2017-Feb-19 13:32N 36°56' W 076°01'4 0.2
2017-Feb-18 17:29N 36°54' W 076°05'0 0.0
2017-Feb-18 13:23N 36°54' W 076°05'7 8.6
2017-Feb-18 12:33N 36°55' W 075°57'7 1.7
2017-Feb-18 08:28N 36°55' W 076°05'1 0.1
2017-Feb-17 21:31N 36°54' W 076°05'1 0.2
2017-Feb-17 17:17N 36°55' W 076°05'1 0.2
2017-Feb-17 13:25N 36°54' W 076°05'0 0.0
2017-Feb-17 09:30N 36°54' W 076°06'2 0.2
2017-Feb-16 21:12N 36°56' W 076°05'2 0.6
2017-Feb-16 17:33N 36°54' W 076°05'0 0.0
2017-Feb-16 16:33N 36°54' W 076°05'0 0.0
2017-Feb-16 15:30N 36°54' W 076°05'0 0.0
2017-Feb-16 14:24N 36°54' W 076°05'2 2.0
2017-Feb-16 13:33N 36°56' W 076°04'2 0.1
2017-Feb-15 20:28N 36°54' W 076°05'0 0.0
2017-Feb-15 19:27N 36°54' W 076°05'0 0.0
2017-Feb-15 18:33N 36°54' W 076°05'0 0.0
2017-Feb-15 17:33N 36°54' W 076°05'  
Track history (hours):
 
Tides and Currents Weather Stations Pressure Air Temp Water Temp Dewpoint Dewpoint Depression Visibility Wind Speed Wind Dir Waves Ship Positions

Norfolk

Owner: Virginia Pilot Boat Corporation, Virginia Beach, VA. More information available from US FCC via Universal Licensing System and Coast Guard Vessel Documentation Center.

Last reported at 2017-Feb-25 17:28 UTC. Time now 2017-Feb-25 20:49 UTC.
Position N 36°57' W 075°58'.

Length 18 m; draft 1.5 m.

Type: Pilot. MMSI: 367512630.

Date/timePositionNaut miles runAvg speedWind from/ knotsBaromVisibWave heightAir tempDewpointWater temp
2017-Feb-25 17:28N 36°57' W 075°58'6 3.2
2017-Feb-25 15:31N 36°54' W 076°05'0 0.0
2017-Feb-25 14:17N 36°54' W 076°05'3 3.5
2017-Feb-25 13:33N 36°56' W 076°03'2 0.1
2017-Feb-24 22:27N 36°55' W 076°05'1 0.2
2017-Feb-24 19:06N 36°55' W 076°06'4 5.0
2017-Feb-24 18:16N 36°56' W 076°01'4 1.0
2017-Feb-24 14:09N 36°54' W 076°05'812.5
2017-Feb-24 13:32N 36°56' W 075°56'8 0.5
2017-Feb-23 22:18N 36°54' W 076°05'0 0.2
2017-Feb-23 21:33N 36°55' W 076°06'0 0.2
2017-Feb-23 20:20N 36°54' W 076°05'1 1.0
2017-Feb-23 19:15N 36°55' W 076°05'2 3.1
2017-Feb-23 18:31N 36°57' W 076°03'2 0.2
2017-Feb-23 08:25N 36°55' W 076°05'0 0.1
2017-Feb-23 07:31N 36°55' W 076°05'3 0.7
2017-Feb-23 03:33N 36°57' W 076°02'4 0.5
2017-Feb-22 20:28N 36°54' W 076°05'3 2.7
2017-Feb-22 19:33N 36°56' W 076°03'3 0.8
2017-Feb-22 16:25N 36°54' W 076°05'0 0.0
2017-Feb-22 15:28N 36°54' W 076°05'0 0.0
2017-Feb-22 14:31N 36°54' W 076°05'0 0.0
2017-Feb-22 13:33N 36°54' W 076°05'0 0.0
2017-Feb-22 12:31N 36°54' W 076°05'0 0.0
2017-Feb-21 22:21N 36°54' W 076°05'0 0.0
2017-Feb-21 20:22N 36°54' W 076°05'3 3.1
2017-Feb-21 19:33N 36°56' W 076°03'2 1.0
2017-Feb-21 17:32N 36°57' W 076°05'2 0.1
2017-Feb-20 22:31N 36°55' W 076°05'1 0.6
2017-Feb-20 21:32N 36°55' W 076°05'0 0.4
2017-Feb-20 20:30N 36°54' W 076°05'0 0.2
2017-Feb-20 19:27N 36°54' W 076°06'0 0.0
2017-Feb-20 14:32N 36°54' W 076°05'8 8.4
2017-Feb-20 13:32N 36°56' W 075°55'8 0.9
2017-Feb-20 04:31N 36°54' W 076°05'0 0.0
2017-Feb-19 20:27N 36°54' W 076°05'6 6.1
2017-Feb-19 19:31N 36°56' W 075°59'6 5.7
2017-Feb-19 18:32N 36°54' W 076°05'0 0.0
2017-Feb-19 17:33N 36°54' W 076°05'4 3.6
2017-Feb-19 16:27N 36°56' W 076°01'4 2.0
2017-Feb-19 14:29N 36°54' W 076°05'4 4.2
2017-Feb-19 13:32N 36°56' W 076°01'4 0.2
2017-Feb-18 17:29N 36°54' W 076°05'0 0.0
2017-Feb-18 13:23N 36°54' W 076°05'7 8.6
2017-Feb-18 12:33N 36°55' W 075°57'7 1.7
2017-Feb-18 08:28N 36°55' W 076°05'1 0.1
2017-Feb-17 21:31N 36°54' W 076°05'1 0.2
2017-Feb-17 17:17N 36°55' W 076°05'1 0.2
2017-Feb-17 13:25N 36°54' W 076°05'0 0.0
2017-Feb-17 09:30N 36°54' W 076°06'2 0.2
2017-Feb-16 21:12N 36°56' W 076°05'2 0.6
2017-Feb-16 17:33N 36°54' W 076°05'0 0.0
2017-Feb-16 16:33N 36°54' W 076°05'0 0.0
2017-Feb-16 15:30N 36°54' W 076°05'0 0.0
2017-Feb-16 14:24N 36°54' W 076°05'2 2.0
2017-Feb-16 13:33N 36°56' W 076°04'2 0.1
2017-Feb-15 20:28N 36°54' W 076°05'0 0.0
2017-Feb-15 19:27N 36°54' W 076°05'0 0.0
2017-Feb-15 18:33N 36°54' W 076°05'0 0.0
2017-Feb-15 17:33N 36°54' W 076°05'  

Dump ship's entire track history